Time;durP1;ratioP1;P1;durP2;ratioP2;P2;SDS_P1;SDS_P2;PMS_P1;PMS_P2;Temp;Humidity;BMP_temperature;BMP_pressure;BME280_temperature;BME280_humidity;BME280_pressure;Samples;Min_cycle;Max_cycle;Signal;HPM_P1;HPM_P2
2022/08/28 00:01:34;;;;;;;4.38;1.40;;;13.70;99.90;;;;;;5094794;28;20067;-66
2022/08/28 00:03:59;;;;;;;4.28;1.42;;;13.70;99.90;;;;;;5093754;28;20051;-66
2022/08/28 00:06:26;;;;;;;5.78;1.13;;;13.70;99.90;;;;;;5094684;28;20040;-67
2022/08/28 00:08:52;;;;;;;2.92;1.02;;;13.70;99.90;;;;;;5093733;28;20055;-66
2022/08/28 00:11:19;;;;;;;3.10;1.05;;;13.60;99.90;;;;;;5094868;28;20040;-66
2022/08/28 00:13:44;;;;;;;2.65;1.05;;;13.60;99.90;;;;;;5094652;28;20048;-66
2022/08/28 00:16:10;;;;;;;3.65;1.13;;;13.60;99.90;;;;;;5094365;28;20047;-66
2022/08/28 00:18:36;;;;;;;4.57;1.40;;;13.60;99.90;;;;;;5093452;28;20048;-66
2022/08/28 00:21:02;;;;;;;3.10;1.20;;;13.60;99.90;;;;;;5093610;28;20119;-66
2022/08/28 00:23:28;;;;;;;2.47;1.38;;;13.60;99.90;;;;;;5094676;28;20040;-66
2022/08/28 00:25:54;;;;;;;2.22;1.27;;;13.60;99.90;;;;;;5094415;28;20048;-66
2022/08/28 00:28:20;;;;;;;3.20;1.38;;;13.50;99.90;;;;;;5094616;28;20036;-66
2022/08/28 00:30:48;;;;;;;1.70;1.08;;;13.60;99.90;;;;;;5092955;28;20050;-66
2022/08/28 00:33:18;;;;;;;3.97;1.38;;;13.50;99.90;;;;;;5094271;28;20036;-66
2022/08/28 00:35:45;;;;;;;5.95;1.50;;;13.50;99.90;;;;;;5093608;28;20044;-66
2022/08/28 00:38:11;;;;;;;4.90;1.67;;;13.50;99.90;;;;;;5094452;28;20064;-66
2022/08/28 00:40:41;;;;;;;3.78;1.33;;;13.50;99.90;;;;;;5094617;28;20042;-66
2022/08/28 00:43:08;;;;;;;4.78;1.33;;;13.50;99.90;;;;;;5094344;28;20036;-67
2022/08/28 00:45:35;;;;;;;3.55;1.20;;;13.50;99.90;;;;;;5094197;28;20496;-66
2022/08/28 00:48:01;;;;;;;2.42;1.40;;;13.40;99.90;;;;;;5093901;28;20044;-66
2022/08/28 00:52:04;;;;;;;2.78;1.20;;;13.40;99.90;;;;;;5094154;28;20403;-66
2022/08/28 00:53:18;;;;;;;2.08;1.17;;;13.40;1.00;;;;;;5094089;28;20069;-66
2022/08/28 00:55:44;;;;;;;3.88;1.27;;;13.40;1.00;;;;;;5094007;28;20044;-66
2022/08/28 00:58:11;;;;;;;1.88;0.90;;;13.30;1.00;;;;;;5092652;28;20051;-66
2022/08/28 01:00:39;;;;;;;2.15;1.08;;;13.30;1.00;;;;;;5093982;28;20088;-66
2022/08/28 01:03:05;;;;;;;5.05;1.35;;;13.30;1.00;;;;;;5092668;28;20040;-66
2022/08/28 01:05:33;;;;;;;3.70;1.20;;;13.40;1.00;;;;;;5093568;28;20039;-66
2022/08/28 01:07:59;;;;;;;2.30;1.10;;;13.30;1.00;;;;;;5093813;28;20069;-66
2022/08/28 01:10:28;;;;;;;1.98;0.95;;;13.30;1.00;;;;;;5092493;28;20047;-66
2022/08/28 01:12:55;;;;;;;1.33;0.93;;;13.20;1.00;;;;;;5092083;28;20123;-66
2022/08/28 01:15:27;;;;;;;1.67;1.15;;;13.30;1.00;;;;;;5093715;28;20115;-66
2022/08/28 01:17:57;;;;;;;3.13;1.50;;;13.20;1.00;;;;;;5093573;28;20036;-66
2022/08/28 01:20:31;;;;;;;2.97;1.20;;;13.20;1.00;;;;;;5093379;28;20065;-66
2022/08/28 01:23:41;;;;;;;8.02;1.67;;;13.10;1.00;;;;;;5093637;28;20047;-66
2022/08/28 01:26:07;;;;;;;2.08;1.13;;;13.10;1.00;;;;;;5077618;28;20059;-66
2022/08/28 01:28:32;;;;;;;3.20;1.63;;;13.00;1.00;;;;;;5093200;28;20040;-66
2022/08/28 01:30:58;;;;;;;1.75;1.10;;;13.00;1.00;;;;;;5093156;28;20046;-66
2022/08/28 01:33:24;;;;;;;2.25;1.25;;;13.00;1.00;;;;;;5093107;28;20043;-66
2022/08/28 01:35:49;;;;;;;3.10;1.10;;;13.00;1.00;;;;;;5091806;28;20043;-66
2022/08/28 01:38:16;;;;;;;6.80;1.50;;;13.00;1.00;;;;;;5091826;28;20040;-65
2022/08/28 01:40:46;;;;;;;2.08;1.17;;;13.00;1.00;;;;;;5093042;28;20036;-66
2022/08/28 01:43:16;;;;;;;1.52;0.90;;;13.20;1.00;;;;;;5093629;28;20101;-66
2022/08/28 01:45:45;;;;;;;4.25;1.40;;;13.00;1.00;;;;;;5093082;28;20070;-66
2022/08/28 01:48:13;;;;;;;7.07;1.55;;;13.00;1.00;;;;;;5092384;28;20043;-66
2022/08/28 01:50:39;;;;;;;3.03;1.00;;;13.00;1.00;;;;;;5093426;28;20032;-66
2022/08/28 01:53:05;;;;;;;4.32;1.35;;;13.00;1.00;;;;;;5092862;28;20047;-66
2022/08/28 01:55:34;;;;;;;4.47;1.52;;;12.90;1.00;;;;;;5093110;28;20387;-66
2022/08/28 01:58:02;;;;;;;4.18;1.48;;;12.90;1.00;;;;;;5093051;28;20048;-66
2022/08/28 02:00:28;;;;;;;6.10;1.35;;;12.90;1.00;;;;;;5093045;28;20048;-66
2022/08/28 02:02:56;;;;;;;1.48;1.08;;;12.80;1.00;;;;;;5091562;28;20055;-66
2022/08/28 02:05:28;;;;;;;5.80;1.38;;;12.80;1.00;;;;;;5092853;28;20119;-66
2022/08/28 02:07:56;;;;;;;3.08;1.42;;;12.70;1.00;;;;;;5093019;28;20044;-66
2022/08/28 02:10:23;;;;;;;4.40;1.40;;;12.80;1.00;;;;;;5092981;28;20047;-66
2022/08/28 02:12:56;;;;;;;3.15;1.45;;;12.80;1.00;;;;;;5092942;28;20388;-66
2022/08/28 02:15:24;;;;;;;2.30;1.10;;;12.80;1.00;;;;;;5092675;28;20145;-66
2022/08/28 02:17:51;;;;;;;2.22;1.25;;;12.70;1.00;;;;;;5092538;28;20050;-66
2022/08/28 02:20:17;;;;;;;2.25;1.35;;;12.70;1.00;;;;;;5092925;28;20051;-66
2022/08/28 02:22:43;;;;;;;4.95;1.20;;;12.70;1.00;;;;;;5092874;28;20028;-66
2022/08/28 02:25:10;;;;;;;2.38;1.20;;;12.90;1.00;;;;;;5092950;28;20043;-66
2022/08/28 02:27:36;;;;;;;3.15;1.10;;;12.70;1.00;;;;;;5092802;28;20081;-66
2022/08/28 02:30:04;;;;;;;1.20;0.80;;;12.60;1.00;;;;;;5091377;28;20123;-66
2022/08/28 02:32:30;;;;;;;2.72;0.95;;;12.60;1.00;;;;;;5092810;28;20483;-66
2022/08/28 02:34:55;;;;;;;1.85;0.90;;;12.60;1.00;;;;;;5091202;28;20052;-66
2022/08/28 02:37:22;;;;;;;6.32;1.17;;;12.80;1.00;;;;;;5092400;28;20484;-66
2022/08/28 02:39:48;;;;;;;4.25;1.52;;;12.60;1.00;;;;;;5092779;28;20051;-66
2022/08/28 02:42:14;;;;;;;6.35;1.20;;;12.60;1.00;;;;;;5092916;28;20029;-66
2022/08/28 02:44:40;;;;;;;2.20;1.20;;;12.60;1.00;;;;;;5092755;28;20070;-66
2022/08/28 02:47:07;;;;;;;2.90;1.00;;;12.60;1.00;;;;;;5091221;28;20491;-66
2022/08/28 02:49:32;;;;;;;3.40;1.33;;;12.60;1.00;;;;;;5092654;28;20040;-66
2022/08/28 02:51:58;;;;;;;2.17;0.95;;;12.70;1.00;;;;;;5092549;28;20067;-66
2022/08/28 02:54:27;;;;;;;4.97;1.25;;;12.60;1.00;;;;;;5092635;28;20382;-67
2022/08/28 02:56:54;;;;;;;2.17;1.17;;;12.60;1.00;;;;;;5092490;28;20050;-66
2022/08/28 02:59:20;;;;;;;4.75;1.70;;;12.60;1.00;;;;;;5095438;28;20039;-66
2022/08/28 03:01:45;;;;;;;1.73;0.93;;;12.60;1.00;;;;;;5096029;28;20032;-66
2022/08/28 03:04:11;;;;;;;2.22;0.93;;;12.60;1.00;;;;;;5096264;28;20065;-66
2022/08/28 03:06:37;;;;;;;1.83;1.35;;;12.60;1.00;;;;;;5095853;28;20040;-66
2022/08/28 03:09:04;;;;;;;2.08;1.13;;;12.60;1.00;;;;;;5096198;28;20047;-66
2022/08/28 03:11:29;;;;;;;3.22;1.13;;;12.50;1.00;;;;;;5095836;28;20135;-66
2022/08/28 03:13:55;;;;;;;2.55;1.27;;;12.50;9.80;;;;;;5095840;28;20083;-66
2022/08/28 03:16:21;;;;;;;3.72;1.25;;;12.40;1.00;;;;;;5095868;28;20044;-66
2022/08/28 03:18:46;;;;;;;2.10;1.13;;;12.50;4.70;;;;;;5096040;28;20479;-66
2022/08/28 03:21:13;;;;;;;2.17;1.10;;;12.50;6.50;;;;;;5095596;28;20040;-66
2022/08/28 03:23:39;;;;;;;3.10;1.20;;;12.50;1.50;;;;;;5094281;28;20040;-66
2022/08/28 03:26:10;;;;;;;3.63;1.00;;;12.50;3.30;;;;;;5095831;28;20063;-66
2022/08/28 03:28:48;;;;;;;1.95;1.30;;;12.50;4.10;;;;;;5094251;28;20048;-66
2022/08/28 03:31:17;;;;;;;6.07;1.38;;;12.50;5.50;;;;;;5095757;28;20491;-66
2022/08/28 03:33:44;;;;;;;4.20;1.23;;;12.50;3.80;;;;;;5095720;28;20100;-66
2022/08/28 03:36:13;;;;;;;2.08;1.25;;;12.50;8.10;;;;;;5095613;28;20085;-66
2022/08/28 03:38:40;;;;;;;1.35;0.85;;;12.40;7.10;;;;;;5095311;28;20051;-66
2022/08/28 03:41:10;;;;;;;3.53;1.35;;;12.40;5.30;;;;;;5095521;28;20503;-66
2022/08/28 03:43:36;;;;;;;6.10;1.47;;;12.40;5.00;;;;;;5093920;28;20118;-66
2022/08/28 03:46:04;;;;;;;2.63;1.33;;;12.40;10.10;;;;;;5093829;28;20282;-67
2022/08/28 03:48:34;;;;;;;3.25;1.35;;;12.40;13.20;;;;;;5095383;28;20389;-67
2022/08/28 03:51:01;;;;;;;3.63;1.43;;;12.40;15.70;;;;;;5095056;28;20040;-66
2022/08/28 03:53:28;;;;;;;1.63;1.00;;;12.40;17.60;;;;;;5095276;28;20075;-66
2022/08/28 03:55:55;;;;;;;2.95;1.17;;;12.40;13.90;;;;;;5095160;28;20032;-66
2022/08/28 03:58:22;;;;;;;4.32;1.40;;;12.50;14.10;;;;;;5094938;28;20036;-66
2022/08/28 04:00:49;;;;;;;2.42;1.25;;;12.40;17.70;;;;;;5095123;28;20044;-66
2022/08/28 04:03:15;;;;;;;1.15;0.95;;;12.40;15.80;;;;;;5095098;28;20032;-67
2022/08/28 04:05:42;;;;;;;7.93;1.50;;;12.40;17.90;;;;;;5095005;28;20034;-66
2022/08/28 04:08:09;;;;;;;3.30;1.30;;;12.40;18.50;;;;;;5095014;28;20047;-66
2022/08/28 04:10:35;;;;;;;5.97;1.63;;;12.30;16.50;;;;;;5093857;28;20104;-66
2022/08/28 04:13:02;;;;;;;3.25;1.20;;;12.30;19.80;;;;;;5094407;28;20047;-66
2022/08/28 04:15:28;;;;;;;2.20;0.93;;;12.30;20.10;;;;;;5094824;28;20487;-66
2022/08/28 04:17:55;;;;;;;4.25;1.13;;;12.60;18.80;;;;;;5094443;28;20047;-66
2022/08/28 04:20:20;;;;;;;3.30;1.17;;;12.30;23.20;;;;;;5094772;28;20032;-66
2022/08/28 04:22:47;;;;;;;3.03;0.95;;;12.30;33.60;;;;;;5094461;28;20040;-66
2022/08/28 04:25:13;;;;;;;1.83;1.08;;;12.30;33.40;;;;;;5094601;28;20032;-66
2022/08/28 04:27:40;;;;;;;8.00;1.48;;;12.30;36.10;;;;;;5094612;28;20036;-67
2022/08/28 04:30:08;;;;;;;7.57;1.65;;;12.40;37.40;;;;;;5094579;28;20113;-66
2022/08/28 04:32:34;;;;;;;2.15;1.08;;;12.30;34.00;;;;;;5093264;28;20070;-66
2022/08/28 04:35:01;;;;;;;3.80;1.15;;;12.30;34.90;;;;;;5094095;28;20047;-66
2022/08/28 04:37:27;;;;;;;1.45;0.80;;;12.30;34.60;;;;;;5093966;28;20131;-66
2022/08/28 04:39:52;;;;;;;2.33;1.08;;;12.20;39.20;;;;;;5094442;28;20082;-65
2022/08/28 04:42:18;;;;;;;2.20;0.90;;;12.20;40.50;;;;;;5094262;28;20069;-65
2022/08/28 04:44:44;;;;;;;2.25;1.25;;;12.20;40.80;;;;;;5094307;28;20387;-66
2022/08/28 04:47:10;;;;;;;3.08;1.27;;;12.20;40.70;;;;;;5094223;28;20047;-65
2022/08/28 04:49:36;;;;;;;2.95;1.15;;;12.20;42.80;;;;;;5094231;28;20051;-65
2022/08/28 04:52:02;;;;;;;2.70;1.20;;;12.30;43.70;;;;;;5094089;28;20040;-66
2022/08/28 04:54:27;;;;;;;3.10;1.25;;;12.20;42.20;;;;;;5094126;28;20119;-66
2022/08/28 04:56:53;;;;;;;1.88;1.08;;;12.20;44.00;;;;;;5094041;28;20503;-66
2022/08/28 04:59:19;;;;;;;5.88;1.02;;;12.20;47.00;;;;;;5094085;28;20043;-66
2022/08/28 05:01:44;;;;;;;1.70;0.73;;;12.30;46.60;;;;;;5094047;28;20395;-66
2022/08/28 05:04:11;;;;;;;1.50;1.00;;;12.40;47.00;;;;;;5093944;28;20479;-66
2022/08/28 05:06:42;;;;;;;4.70;1.02;;;12.40;46.20;;;;;;5092275;28;20039;-66
2022/08/28 05:09:08;;;;;;;5.45;0.93;;;12.80;44.70;;;;;;5093928;28;20052;-66
2022/08/28 05:11:33;;;;;;;2.90;1.17;;;12.40;44.80;;;;;;5093849;28;20035;-66
2022/08/28 05:14:00;;;;;;;1.92;0.95;;;12.50;41.30;;;;;;5093265;28;20384;-66
2022/08/28 05:16:26;;;;;;;2.30;0.93;;;12.50;43.50;;;;;;5092146;28;20048;-65
2022/08/28 05:18:51;;;;;;;1.77;0.82;;;12.50;41.40;;;;;;5093715;28;20036;-66
2022/08/28 05:21:21;;;;;;;2.15;0.90;;;12.50;41.60;;;;;;5093071;28;20032;-66
2022/08/28 05:23:53;;;;;;;4.32;0.98;;;12.50;38.60;;;;;;5093638;28;20072;-65
2022/08/28 05:26:19;;;;;;;3.40;1.10;;;12.80;42.00;;;;;;5093602;28;20039;-65
2022/08/28 05:28:46;;;;;;;1.83;0.90;;;12.50;44.40;;;;;;5093544;28;20035;-66
2022/08/28 05:31:15;;;;;;;5.22;1.02;;;12.50;42.20;;;;;;5093256;28;20032;-65
2022/08/28 05:33:42;;;;;;;3.25;1.00;;;12.70;37.70;;;;;;5093372;28;20111;-66
2022/08/28 05:36:09;;;;;;;3.17;1.23;;;12.50;42.20;;;;;;5093058;28;20040;-65
2022/08/28 05:38:34;;;;;;;2.42;1.10;;;12.50;39.00;;;;;;5093407;28;20165;-66
2022/08/28 05:41:02;;;;;;;3.33;1.23;;;12.50;44.10;;;;;;5093050;28;20510;-65
2022/08/28 05:43:28;;;;;;;2.83;1.23;;;12.50;44.50;;;;;;5093271;28;20040;-65
2022/08/28 05:46:03;;;;;;;4.63;1.10;;;12.60;38.80;;;;;;5093110;28;20521;-66
2022/08/28 05:48:30;;;;;;;2.67;0.98;;;12.60;37.80;;;;;;5093169;28;20050;-66
2022/08/28 05:51:08;;;;;;;2.50;1.17;;;12.60;38.60;;;;;;5093254;28;20453;-65
2022/08/28 05:53:39;;;;;;;3.50;1.10;;;12.60;36.10;;;;;;5093173;28;20042;-65
2022/08/28 05:56:09;;;;;;;3.13;0.90;;;12.80;37.00;;;;;;5093161;28;20039;-66
2022/08/28 05:58:36;;;;;;;3.35;1.00;;;12.70;33.80;;;;;;5093158;28;20454;-66
2022/08/28 06:01:16;;;;;;;2.78;1.40;;;12.80;35.70;;;;;;5092856;28;20123;-66
2022/08/28 06:04:04;;;;;;;2.65;0.88;;;12.90;35.10;;;;;;5091528;28;20133;-66
2022/08/28 06:06:33;;;;;;;1.23;0.93;;;12.90;32.80;;;;;;5081923;28;20518;-66
2022/08/28 06:09:08;;;;;;;2.35;1.20;;;13.10;26.80;;;;;;5092815;28;20044;-65
2022/08/28 06:11:35;;;;;;;1.40;0.80;;;13.10;24.50;;;;;;5093026;28;20040;-66
2022/08/28 06:14:08;;;;;;;1.77;0.80;;;13.50;20.60;;;;;;5092771;28;20392;-65
2022/08/28 06:16:35;;;;;;;2.42;0.90;;;13.40;12.50;;;;;;5091373;28;20192;-66
2022/08/28 06:19:00;;;;;;;1.80;0.95;;;13.40;8.70;;;;;;5092719;28;20080;-66
2022/08/28 06:21:27;;;;;;;2.45;1.00;;;13.60;3.90;;;;;;5092730;28;20452;-66
2022/08/28 06:23:53;;;;;;;2.38;1.27;;;13.60;1.80;;;;;;5092438;28;20115;-65
2022/08/28 06:26:18;;;;;;;3.72;1.02;;;13.80;1.00;;;;;;5092685;28;20128;-65
2022/08/28 06:28:44;;;;;;;4.25;1.33;;;13.90;1.00;;;;;;5092361;28;20036;-66
2022/08/28 06:31:09;;;;;;;1.42;0.65;;;14.00;1.00;;;;;;5091126;28;20101;-65
2022/08/28 06:33:35;;;;;;;1.85;0.77;;;14.10;1.00;;;;;;5094527;28;20043;-67
2022/08/28 06:36:03;;;;;;;1.88;1.00;;;14.30;1.00;;;;;;5094993;28;20040;-66
2022/08/28 06:38:29;;;;;;;0.98;0.70;;;14.40;1.00;;;;;;5096561;28;20120;-66
2022/08/28 06:40:56;;;;;;;2.90;0.85;;;14.60;1.00;;;;;;5096580;28;20067;-64
2022/08/28 06:43:27;;;;;;;5.45;1.13;;;14.80;1.00;;;;;;5096542;28;20036;-67
2022/08/28 06:45:55;;;;;;;2.65;1.05;;;14.90;1.00;;;;;;5096554;28;20090;-66
2022/08/28 06:48:26;;;;;;;3.65;0.95;;;15.10;1.00;;;;;;5094994;28;20496;-65
2022/08/28 06:50:53;;;;;;;0.95;0.60;;;15.40;1.00;;;;;;5094829;28;20039;-66
2022/08/28 06:53:22;;;;;;;3.53;1.00;;;15.40;99.90;;;;;;5096319;28;20169;-67
2022/08/28 06:56:07;;;;;;;2.53;0.90;;;15.50;99.90;;;;;;5096320;28;20043;-64
2022/08/28 06:58:36;;;;;;;0.95;0.65;;;15.60;99.90;;;;;;5094979;28;20044;-65
2022/08/28 07:01:11;;;;;;;2.28;0.85;;;15.70;99.90;;;;;;5095178;28;20097;-64
2022/08/28 07:03:38;;;;;;;2.88;0.90;;;15.80;99.90;;;;;;5095766;28;20040;-65
2022/08/28 07:06:05;;;;;;;3.90;0.80;;;16.10;99.90;;;;;;5096111;28;20395;-66
2022/08/28 07:08:32;;;;;;;1.80;0.98;;;16.10;99.90;;;;;;5095656;28;20036;-66
2022/08/28 07:10:59;;;;;;;3.53;0.73;;;16.30;99.90;;;;;;5095987;28;20092;-65
2022/08/28 07:13:25;;;;;;;1.98;0.50;;;16.40;99.90;;;;;;5095454;28;20044;-65
2022/08/28 07:15:51;;;;;;;1.23;0.65;;;16.60;99.90;;;;;;5095883;28;20364;-67
2022/08/28 07:18:17;;;;;;;1.65;0.80;;;16.80;1.00;;;;;;5095847;28;20044;-66
2022/08/28 07:20:44;;;;;;;2.03;0.85;;;16.90;1.00;;;;;;5095892;28;20036;-66
2022/08/28 07:23:10;;;;;;;2.78;0.80;;;17.10;99.90;;;;;;5095813;28;20039;-66
2022/08/28 07:25:40;;;;;;;2.83;0.73;;;17.20;99.90;;;;;;5095704;28;20048;-66
2022/08/28 07:28:06;;;;;;;1.08;0.70;;;17.40;99.90;;;;;;5095577;28;20113;-67
2022/08/28 07:30:32;;;;;;;2.25;0.80;;;17.50;99.90;;;;;;5095461;28;20051;-67
2022/08/28 07:32:58;;;;;;;2.42;0.70;;;17.70;1.00;;;;;;5095854;28;20044;-66
2022/08/28 07:35:23;;;;;;;0.60;0.43;;;17.80;99.90;;;;;;5095703;28;20086;-67
2022/08/28 07:37:49;;;;;;;1.95;0.80;;;18.00;99.90;;;;;;5095594;28;20040;-66
2022/08/28 07:40:15;;;;;;;1.48;0.80;;;18.10;99.90;;;;;;5095595;28;20040;-65
2022/08/28 07:45:28;;;;;;;2.35;0.73;;;18.30;99.90;;;;;;5095129;28;20094;-66
2022/08/28 07:47:54;;;;;;;0.73;0.52;;;18.50;95.60;;;;;;5095534;28;20034;-66
2022/08/28 07:50:20;;;;;;;4.47;0.93;;;18.60;99.90;;;;;;5094167;28;20115;-66
2022/08/28 07:52:45;;;;;;;7.15;0.88;;;18.80;99.90;;;;;;5095402;28;20044;-66
2022/08/28 07:55:11;;;;;;;0.68;0.50;;;18.90;99.90;;;;;;5095371;28;20059;-67
2022/08/28 07:57:37;;;;;;;0.90;0.70;;;18.90;2.70;;;;;;5095189;28;20403;-66
2022/08/28 08:00:04;;;;;;;1.67;0.73;;;19.00;1.00;;;;;;5095303;28;20036;-66
2022/08/28 08:02:29;;;;;;;1.85;0.90;;;19.00;1.00;;;;;;5095204;28;20496;-66
2022/08/28 08:04:55;;;;;;;1.42;0.70;;;19.20;1.00;;;;;;5094880;28;20093;-66
2022/08/28 08:07:21;;;;;;;0.77;0.55;;;19.30;1.00;;;;;;5095124;28;20125;-66
2022/08/28 08:09:47;;;;;;;1.20;0.80;;;19.30;99.90;;;;;;5095093;28;20549;-66
2022/08/28 08:12:13;;;;;;;2.47;0.50;;;19.40;99.90;;;;;;5094966;28;20487;-66
2022/08/28 08:14:41;;;;;;;2.58;0.68;;;19.40;99.90;;;;;;5094676;28;20496;-68
2022/08/28 08:17:08;;;;;;;1.10;0.65;;;19.40;99.90;;;;;;5094872;28;20407;-66
2022/08/28 08:19:34;;;;;;;1.10;0.55;;;19.40;99.90;;;;;;5094867;28;20036;-65
2022/08/28 08:22:01;;;;;;;1.75;0.80;;;19.50;99.90;;;;;;5094848;28;20119;-66
2022/08/28 08:24:27;;;;;;;2.15;0.55;;;19.40;99.90;;;;;;5094493;28;20050;-66
2022/08/28 08:27:00;;;;;;;2.15;0.70;;;19.40;99.90;;;;;;5094563;28;20048;-67
2022/08/28 08:29:34;;;;;;;1.38;0.70;;;19.50;99.90;;;;;;5093099;28;20070;-66
2022/08/28 08:32:04;;;;;;;2.75;0.90;;;19.70;99.90;;;;;;5094627;28;20123;-68
2022/08/28 08:34:31;;;;;;;0.97;0.67;;;19.70;99.90;;;;;;5093316;28;20035;-67
2022/08/28 08:36:57;;;;;;;2.45;0.80;;;19.80;99.90;;;;;;5094467;28;20058;-67
2022/08/28 08:39:23;;;;;;;3.38;0.52;;;19.80;99.90;;;;;;5094067;28;20485;-66
2022/08/28 08:41:53;;;;;;;0.75;0.50;;;20.10;99.90;;;;;;5094432;28;20040;-66
2022/08/28 08:44:33;;;;;;;1.80;0.80;;;20.30;99.90;;;;;;5094176;28;20123;-66
2022/08/28 08:47:35;;;;;;;1.35;0.55;;;20.30;99.90;;;;;;5094001;28;20039;-68
2022/08/28 08:50:15;;;;;;;1.33;0.82;;;20.10;99.90;;;;;;5094136;28;20036;-65
2022/08/28 08:52:44;;;;;;;;;;;19.90;99.90;;;;;;5094278;28;20044;-65
2022/08/28 08:55:33;;;;;;;3.25;0.90;;;19.80;99.90;;;;;;5093844;28;20007;-66
2022/08/28 08:58:10;;;;;;;1.35;0.68;;;19.90;99.90;;;;;;5093688;28;20048;-65
2022/08/28 09:00:51;;;;;;;1.40;0.80;;;20.00;99.90;;;;;;5093987;28;20111;-65
2022/08/28 09:03:37;;;;;;;3.45;0.88;;;20.10;99.90;;;;;;5092323;28;20075;-64
2022/08/28 09:06:04;;;;;;;2.47;0.55;;;20.30;99.90;;;;;;5092686;28;20075;-65
2022/08/28 09:08:44;;;;;;;1.55;0.60;;;20.40;99.90;;;;;;5093567;28;20042;-64
2022/08/28 09:11:33;;;;;;;1.73;0.80;;;20.40;99.90;;;;;;5093978;28;20047;-64
2022/08/28 09:14:27;;;;;;;1.05;0.60;;;20.20;99.90;;;;;;5093552;28;20040;-65
2022/08/28 09:16:55;;;;;;;1.38;0.70;;;20.10;99.90;;;;;;5064569;28;20055;-63
2022/08/28 09:19:21;;;;;;;1.23;0.68;;;19.90;99.90;;;;;;5093741;28;20380;-65
2022/08/28 09:21:49;;;;;;;0.98;0.60;;;19.70;99.90;;;;;;5093618;28;20031;-65
2022/08/28 09:24:27;;;;;;;2.10;0.80;;;19.60;99.90;;;;;;5093646;28;20176;-65
2022/08/28 09:27:13;;;;;;;2.55;0.90;;;19.50;99.90;;;;;;5093606;28;20177;-65
2022/08/28 09:29:45;;;;;;;1.75;0.50;;;19.50;99.90;;;;;;5092540;28;20468;-64
2022/08/28 09:32:40;;;;;;;1.35;0.60;;;19.70;99.90;;;;;;5092269;28;20048;-65
2022/08/28 09:35:18;;;;;;;1.02;0.57;;;19.90;99.90;;;;;;5093467;28;20055;-63
2022/08/28 09:37:43;;;;;;;1.50;0.90;;;20.10;99.90;;;;;;5092988;28;20040;-63
2022/08/28 09:40:20;;;;;;;3.85;0.75;;;20.20;99.90;;;;;;5093084;28;20043;-65
2022/08/28 09:43:26;;;;;;;2.08;0.80;;;20.10;99.90;;;;;;5093111;28;20129;-66
2022/08/28 09:45:58;;;;;;;1.25;0.68;;;20.00;99.90;;;;;;5083824;28;20040;-65
2022/08/28 09:48:45;;;;;;;1.38;0.75;;;20.10;99.90;;;;;;5093026;28;20036;-65
2022/08/28 09:51:21;;;;;;;1.35;0.68;;;20.40;99.90;;;;;;5093022;28;20406;-66
2022/08/28 09:53:49;;;;;;;3.00;0.90;;;20.70;99.90;;;;;;5093232;28;20372;-65
2022/08/28 09:56:38;;;;;;;1.55;0.77;;;20.70;99.90;;;;;;5092787;28;20119;-65
2022/08/28 09:59:09;;;;;;;4.15;0.90;;;20.60;99.90;;;;;;5092840;28;20479;-65
2022/08/28 10:01:40;;;;;;;1.92;0.85;;;20.30;99.90;;;;;;5092891;28;20040;-64
2022/08/28 10:04:33;;;;;;;2.80;0.60;;;20.30;99.90;;;;;;5093080;28;20087;-65
2022/08/28 10:07:36;;;;;;;1.33;0.85;;;20.50;99.90;;;;;;5093067;28;20040;-64
2022/08/28 10:10:26;;;;;;;1.45;0.80;;;20.70;99.90;;;;;;5097385;28;20533;-65
2022/08/28 10:13:26;;;;;;;3.65;0.70;;;20.90;99.90;;;;;;5097336;28;20035;-65
2022/08/28 10:16:10;;;;;;;1.75;0.57;;;20.80;99.90;;;;;;5096954;28;20101;-64
2022/08/28 10:18:48;;;;;;;2.35;0.80;;;21.20;99.90;;;;;;5096850;28;20131;-64
2022/08/28 10:21:25;;;;;;;2.10;0.90;;;21.40;99.90;;;;;;5097137;28;20043;-63
2022/08/28 10:23:57;;;;;;;1.63;0.90;;;21.30;94.10;;;;;;5096639;28;20039;-64
2022/08/28 10:26:47;;;;;;;2.20;0.75;;;21.00;90.50;;;;;;5096931;28;20036;-64
2022/08/28 10:29:30;;;;;;;1.80;0.90;;;20.80;90.50;;;;;;5097030;28;20067;-65
2022/08/28 10:32:17;;;;;;;0.43;0.40;;;21.00;79.20;;;;;;5095672;28;20044;-65
2022/08/28 10:34:57;;;;;;;2.85;0.82;;;21.20;87.60;;;;;;5096592;28;20071;-67
2022/08/28 10:37:23;;;;;;;;;;;21.40;76.40;;;;;;5096896;28;20046;-66
2022/08/28 10:40:02;;;;;;;3.15;0.75;;;21.40;73.50;;;;;;5096474;28;19967;-65
2022/08/28 10:42:40;;;;;;;1.05;0.68;;;21.40;70.40;;;;;;5096403;28;20047;-66
2022/08/28 10:45:20;;;;;;;1.67;0.68;;;21.30;69.60;;;;;;5095186;28;20043;-64
2022/08/28 10:47:54;;;;;;;2.90;0.70;;;21.00;64.60;;;;;;5096694;28;20041;-65
2022/08/28 10:50:33;;;;;;;1.52;0.50;;;21.10;61.20;;;;;;5096581;28;20403;-64
2022/08/28 10:53:05;;;;;;;1.13;0.60;;;21.20;66.40;;;;;;5095028;28;20075;-64
2022/08/28 10:55:56;;;;;;;2.10;0.70;;;21.30;51.50;;;;;;5096483;28;20488;-64
2022/08/28 10:58:24;;;;;;;2.33;0.70;;;21.20;50.10;;;;;;5087653;28;20047;-64
2022/08/28 11:00:55;;;;;;;2.10;0.70;;;20.90;49.40;;;;;;5096095;28;20044;-65
2022/08/28 11:03:24;;;;;;;2.15;0.75;;;20.80;52.70;;;;;;5096404;28;20115;-65
2022/08/28 11:06:00;;;;;;;1.05;0.60;;;21.00;53.70;;;;;;5096292;28;20043;-65
2022/08/28 11:08:27;;;;;;;0.90;0.75;;;21.20;58.00;;;;;;5094656;28;20090;-64
2022/08/28 11:10:57;;;;;;;0.82;0.60;;;21.20;50.30;;;;;;5096135;28;20036;-64
2022/08/28 11:13:58;;;;;;;1.95;0.50;;;20.90;46.50;;;;;;5095704;28;20465;-64
2022/08/28 11:16:26;;;;;;;2.38;1.05;;;20.70;38.20;;;;;;5094363;28;20080;-65
2022/08/28 11:19:25;;;;;;;2.28;0.82;;;20.70;41.40;;;;;;5095519;28;20036;-64
2022/08/28 11:21:59;;;;;;;0.95;0.50;;;20.80;32.20;;;;;;5095907;28;20123;-63
2022/08/28 11:24:29;;;;;;;3.60;0.75;;;20.90;35.90;;;;;;5094366;28;20142;-64
2022/08/28 11:27:00;;;;;;;1.17;0.73;;;21.00;36.60;;;;;;5095951;28;20047;-63
2022/08/28 11:30:03;;;;;;;2.33;0.75;;;21.10;37.90;;;;;;5095853;28;20104;-64
2022/08/28 11:32:31;;;;;;;1.52;0.70;;;21.20;27.70;;;;;;5094506;28;20101;-65
2022/08/28 11:35:00;;;;;;;3.40;0.68;;;21.20;28.10;;;;;;5095377;28;20047;-65
2022/08/28 11:37:39;;;;;;;1.67;0.73;;;21.30;27.80;;;;;;5095575;28;20082;-65
2022/08/28 11:40:39;;;;;;;0.88;0.52;;;21.30;23.80;;;;;;5095245;28;20040;-63
2022/08/28 11:43:13;;;;;;;1.60;0.65;;;21.30;24.60;;;;;;5095360;28;20521;-64
2022/08/28 11:45:42;;;;;;;0.60;0.50;;;21.20;24.40;;;;;;5095501;28;20040;-65
2022/08/28 11:48:34;;;;;;;1.38;0.57;;;21.10;19.90;;;;;;5094018;28;20048;-64
2022/08/28 11:51:21;;;;;;;1.95;0.70;;;20.90;19.30;;;;;;5095126;28;20380;-64
2022/08/28 11:54:11;;;;;;;3.97;0.52;;;20.90;22.80;;;;;;5095083;28;20047;-64
2022/08/28 11:57:14;;;;;;;1.48;0.50;;;21.00;16.80;;;;;;5094903;28;20043;-64
2022/08/28 11:59:52;;;;;;;1.65;0.77;;;20.90;18.20;;;;;;5095255;28;20490;-65
2022/08/28 12:02:34;;;;;;;5.70;0.85;;;20.90;19.30;;;;;;5095131;28;20059;-67
2022/08/28 12:05:01;;;;;;;1.35;0.85;;;21.10;18.70;;;;;;5095181;28;20467;-66
2022/08/28 12:07:34;;;;;;;1.10;0.63;;;21.00;18.40;;;;;;5094756;28;20051;-66
2022/08/28 12:10:00;;;;;;;1.38;0.63;;;20.70;13.70;;;;;;5094772;28;20039;-67
2022/08/28 12:12:43;;;;;;;0.95;0.63;;;20.50;14.20;;;;;;5095017;28;20496;-66
2022/08/28 12:15:09;;;;;;;2.75;0.80;;;20.50;16.20;;;;;;5094482;28;20059;-65
2022/08/28 12:17:45;;;;;;;0.73;0.60;;;20.70;13.70;;;;;;5094506;28;20044;-66
2022/08/28 12:20:45;;;;;;;1.50;0.82;;;21.00;18.80;;;;;;5094876;28;20043;-65
2022/08/28 12:23:33;;;;;;;1.35;0.77;;;21.00;14.20;;;;;;5094568;28;20040;-66
2022/08/28 12:26:17;;;;;;;5.35;1.00;;;20.90;13.70;;;;;;5094777;28;20040;-66
2022/08/28 12:28:49;;;;;;;1.40;0.75;;;21.00;14.40;;;;;;5094724;28;20040;-66
2022/08/28 12:34:39;;;;;;;5.78;1.10;;;21.30;11.00;;;;;;5094511;28;20047;-66
2022/08/28 12:37:22;;;;;;;6.78;1.52;;;21.50;13.50;;;;;;5094505;28;20055;-65
2022/08/28 12:39:48;;;;;;;3.35;1.45;;;21.50;9.50;;;;;;5094556;28;20036;-66
2022/08/28 12:42:17;;;;;;;4.72;1.33;;;21.60;12.80;;;;;;5094307;28;20051;-66
2022/08/28 12:44:44;;;;;;;5.68;0.95;;;21.80;11.40;;;;;;5094404;28;20376;-66
2022/08/28 12:47:19;;;;;;;6.93;1.38;;;21.90;99.90;;;;;;5094349;28;20040;-65
2022/08/28 12:49:45;;;;;;;3.60;1.15;;;21.80;99.90;;;;;;5094470;28;20083;-65
2022/08/28 12:52:24;;;;;;;3.45;1.02;;;21.90;99.90;;;;;;5094241;28;20090;-65
2022/08/28 12:54:53;;;;;;;1.40;0.50;;;21.80;99.90;;;;;;5094001;28;20048;-65
2022/08/28 12:57:21;;;;;;;1.37;0.80;;;21.90;99.90;;;;;;5094091;28;20070;-65
2022/08/28 12:59:50;;;;;;;1.83;0.70;;;21.90;99.90;;;;;;5092573;28;20044;-66
2022/08/28 13:02:29;;;;;;;3.03;0.65;;;22.00;99.90;;;;;;5094037;28;20466;-66
2022/08/28 13:05:03;;;;;;;2.17;0.90;;;21.50;99.90;;;;;;5093829;28;20518;-65
2022/08/28 13:07:33;;;;;;;1.02;0.52;;;21.60;99.90;;;;;;5093710;28;20040;-65
2022/08/28 13:10:04;;;;;;;2.80;0.70;;;21.80;99.90;;;;;;5093614;28;20036;-65
2022/08/28 13:12:38;;;;;;;2.25;0.90;;;21.70;99.90;;;;;;5093932;28;20044;-66
2022/08/28 13:15:06;;;;;;;0.57;0.30;;;21.60;99.90;;;;;;5092291;28;20058;-68
2022/08/28 13:17:46;;;;;;;1.20;0.73;;;21.50;99.90;;;;;;5093671;28;20097;-65